createdAt,value
2024-04-14T00:00:31.086Z,13.20
2024-04-14T00:03:02.948Z,13.10
2024-04-14T00:05:34.720Z,13.20
2024-04-14T00:08:07.244Z,13.20
2024-04-14T00:10:39.084Z,13.20
2024-04-14T00:13:10.898Z,13.10
2024-04-14T00:15:42.684Z,13.10
2024-04-14T00:18:14.999Z,13.10
2024-04-14T00:20:47.304Z,13.10
2024-04-14T00:23:19.113Z,13.10
2024-04-14T00:25:50.868Z,13.00
2024-04-14T00:28:22.605Z,13.00
2024-04-14T00:30:54.679Z,13.00
2024-04-14T00:33:26.655Z,13.00
2024-04-14T00:35:58.564Z,13.00
2024-04-14T00:38:30.589Z,13.00
2024-04-14T00:41:05.440Z,13.00
2024-04-14T00:43:37.183Z,13.00
2024-04-14T00:46:09.078Z,12.90
2024-04-14T00:48:42.013Z,12.90
2024-04-14T00:51:14.256Z,12.80
2024-04-14T00:53:46.220Z,12.80
2024-04-14T00:56:18.866Z,12.80
2024-04-14T00:58:51.405Z,12.80
2024-04-14T01:01:23.283Z,12.80
2024-04-14T01:03:55.401Z,12.70
2024-04-14T01:06:27.326Z,12.70
2024-04-14T01:08:59.192Z,12.70
2024-04-14T01:11:31.040Z,12.70
2024-04-14T01:14:06.680Z,12.70
2024-04-14T01:16:38.529Z,12.70
2024-04-14T01:19:10.345Z,12.70
2024-04-14T01:21:42.206Z,12.70
2024-04-14T01:24:14.027Z,12.70
2024-04-14T01:26:45.814Z,12.70
2024-04-14T01:29:18.736Z,12.70
2024-04-14T01:31:50.485Z,12.70
2024-04-14T01:34:22.420Z,12.70
2024-04-14T01:36:54.370Z,12.60
2024-04-14T01:39:26.190Z,12.60
2024-04-14T01:41:58.015Z,12.60
2024-04-14T01:44:29.782Z,12.60
2024-04-14T01:47:03.296Z,12.50
2024-04-14T01:49:35.093Z,12.50
2024-04-14T01:52:07.021Z,12.50
2024-04-14T01:54:38.995Z,12.50
2024-04-14T01:57:10.772Z,12.50
2024-04-14T01:59:42.606Z,12.40
2024-04-14T02:02:14.395Z,12.40
2024-04-14T02:04:46.753Z,12.40
2024-04-14T02:07:18.578Z,12.40
2024-04-14T02:09:54.918Z,12.30
2024-04-14T02:12:26.787Z,12.30
2024-04-14T02:14:58.659Z,12.30
2024-04-14T02:17:30.480Z,12.30
2024-04-14T02:20:02.886Z,12.30
2024-04-14T02:22:34.712Z,12.20
2024-04-14T02:25:06.594Z,12.20
2024-04-14T02:27:38.496Z,12.20
2024-04-14T02:30:10.712Z,12.20
2024-04-14T02:32:42.635Z,12.20
2024-04-14T02:35:14.526Z,12.20
2024-04-14T02:37:46.285Z,12.20
2024-04-14T02:40:19.536Z,12.10
2024-04-14T02:42:51.376Z,12.10
2024-04-14T02:45:23.598Z,12.10
2024-04-14T02:47:55.471Z,12.10
2024-04-14T02:50:27.244Z,12.10
2024-04-14T02:52:58.997Z,12.10
2024-04-14T02:55:31.335Z,12.10
2024-04-14T02:58:03.695Z,12.10
2024-04-14T03:00:35.744Z,12.10
2024-04-14T03:03:08.372Z,12.10
2024-04-14T03:05:40.711Z,12.10
2024-04-14T03:08:12.492Z,12.00
2024-04-14T03:10:57.189Z,12.00
2024-04-14T03:13:28.958Z,12.00
2024-04-14T03:16:05.158Z,12.00
2024-04-14T03:18:37.033Z,12.00
2024-04-14T03:21:08.840Z,11.90
2024-04-14T03:23:41.113Z,11.90
2024-04-14T03:26:13.972Z,11.90
2024-04-14T03:28:45.875Z,11.90
2024-04-14T03:31:17.787Z,11.80
2024-04-14T03:33:49.658Z,11.80
2024-04-14T03:36:21.759Z,11.80
2024-04-14T03:38:53.944Z,11.70
2024-04-14T03:41:25.808Z,11.70
2024-04-14T03:43:57.590Z,11.70
2024-04-14T03:46:29.391Z,11.70
2024-04-14T03:49:01.286Z,11.70
2024-04-14T03:51:33.153Z,11.70
2024-04-14T03:54:04.943Z,11.70
2024-04-14T03:56:36.749Z,11.70
2024-04-14T03:59:08.587Z,11.70
2024-04-14T04:01:40.400Z,11.70
2024-04-14T04:04:12.405Z,11.70
2024-04-14T04:06:44.406Z,11.70
2024-04-14T04:09:16.171Z,11.70
2024-04-14T04:11:47.915Z,11.60
2024-04-14T04:14:19.722Z,11.60
2024-04-14T04:16:51.588Z,11.50
2024-04-14T04:19:27.407Z,11.50
2024-04-14T04:22:00.079Z,11.50
2024-04-14T04:24:32.157Z,11.40
2024-04-14T04:27:04.098Z,11.40
2024-04-14T04:29:35.954Z,11.40
2024-04-14T04:32:07.745Z,11.40
2024-04-14T04:34:39.484Z,11.40
2024-04-14T04:37:11.284Z,11.40
2024-04-14T04:39:44.236Z,11.30
2024-04-14T04:42:16.041Z,11.30
2024-04-14T04:44:48.048Z,11.30
2024-04-14T04:47:19.913Z,11.30
2024-04-14T04:49:51.643Z,11.20
2024-04-14T04:52:23.440Z,11.30
2024-04-14T04:54:55.226Z,11.20
2024-04-14T04:57:27.327Z,11.20
2024-04-14T04:59:59.122Z,11.30
2024-04-14T05:02:30.892Z,11.30
2024-04-14T05:05:02.655Z,11.30
2024-04-14T05:07:35.061Z,11.40
2024-04-14T05:10:07.553Z,11.40
2024-04-14T05:12:39.381Z,11.40
2024-04-14T05:15:11.696Z,11.50
2024-04-14T05:17:43.530Z,11.50
2024-04-14T05:20:15.434Z,11.60
2024-04-14T05:22:47.251Z,11.60
2024-04-14T05:25:19.020Z,11.70
2024-04-14T05:27:50.812Z,11.70
2024-04-14T05:30:22.660Z,11.80
2024-04-14T05:32:54.566Z,11.90
2024-04-14T05:35:26.349Z,11.90
2024-04-14T05:37:58.111Z,12.00
2024-04-14T05:40:30.023Z,12.10
2024-04-14T05:43:01.843Z,12.20
2024-04-14T05:45:33.612Z,12.30
2024-04-14T05:48:05.752Z,12.40
2024-04-14T05:50:37.635Z,12.50
2024-04-14T05:53:09.872Z,12.70
2024-04-14T05:55:41.619Z,12.80
2024-04-14T05:58:13.380Z,12.90
2024-04-14T06:00:45.272Z,13.10
2024-04-14T06:03:17.553Z,13.20
2024-04-14T06:05:50.093Z,13.30
2024-04-14T06:08:21.878Z,13.40
2024-04-14T06:10:54.012Z,13.50
2024-04-14T06:13:25.917Z,13.70
2024-04-14T06:15:59.512Z,13.90
2024-04-14T06:18:31.383Z,14.30
2024-04-14T06:21:04.502Z,14.60
2024-04-14T06:23:36.297Z,14.80
2024-04-14T06:26:08.929Z,15.00
2024-04-14T06:28:40.723Z,15.10
2024-04-14T06:31:13.220Z,15.20
2024-04-14T06:33:45.118Z,15.30
2024-04-14T06:36:17.403Z,15.30
2024-04-14T06:38:49.191Z,15.20
2024-04-14T06:41:21.110Z,15.20
2024-04-14T06:43:52.888Z,15.20
2024-04-14T06:46:24.732Z,15.20
2024-04-14T06:48:56.660Z,15.40
2024-04-14T06:51:28.697Z,15.70
2024-04-14T06:54:00.475Z,15.90
2024-04-14T06:56:32.311Z,16.00
2024-04-14T06:59:04.086Z,16.20
2024-04-14T07:01:36.113Z,16.30
2024-04-14T07:04:08.071Z,16.50
2024-04-14T07:06:40.223Z,16.60
2024-04-14T07:09:12.048Z,16.70
2024-04-14T07:11:43.922Z,16.80
2024-04-14T07:14:15.858Z,16.90
2024-04-14T07:16:47.581Z,16.90
2024-04-14T07:19:19.512Z,17.10
2024-04-14T07:21:51.344Z,17.30
2024-04-14T07:24:23.400Z,17.30
2024-04-14T07:26:55.278Z,17.30
2024-04-14T07:29:27.114Z,17.40
2024-04-14T07:31:58.886Z,17.40
2024-04-14T07:34:30.658Z,17.50
2024-04-14T07:37:04.013Z,17.60
2024-04-14T07:39:37.115Z,17.70
2024-04-14T07:42:09.622Z,17.80
2024-04-14T07:44:41.382Z,17.90
2024-04-14T07:47:13.279Z,18.00
2024-04-14T07:49:45.267Z,18.10
2024-04-14T07:52:17.054Z,18.30
2024-04-14T07:54:49.073Z,18.40
2024-04-14T07:57:20.898Z,18.40
2024-04-14T07:59:52.742Z,18.60
2024-04-14T08:02:24.722Z,18.60
2024-04-14T08:04:56.709Z,18.80
2024-04-14T08:07:28.632Z,19.00
2024-04-14T08:10:00.597Z,19.10
2024-04-14T08:12:32.595Z,19.20
2024-04-14T08:15:04.555Z,19.30
2024-04-14T08:17:36.416Z,19.40
2024-04-14T08:20:08.758Z,19.50
2024-04-14T08:22:40.552Z,19.50
2024-04-14T08:25:12.531Z,19.60
2024-04-14T08:27:44.516Z,19.70
2024-04-14T08:30:16.591Z,19.70
2024-04-14T08:32:48.506Z,19.80
2024-04-14T08:35:20.479Z,19.80
2024-04-14T08:37:52.645Z,19.80
2024-04-14T08:40:24.676Z,19.90
2024-04-14T08:42:56.719Z,20.00
2024-04-14T08:45:31.233Z,20.20
2024-04-14T08:48:03.983Z,20.20
2024-04-14T08:50:37.999Z,20.40
2024-04-14T08:53:10.848Z,20.50
2024-04-14T08:55:43.493Z,20.60
2024-04-14T08:58:20.299Z,20.70
2024-04-14T09:00:59.287Z,20.80
2024-04-14T09:03:32.421Z,20.90
2024-04-14T09:06:06.863Z,20.90
2024-04-14T09:08:38.782Z,21.10
2024-04-14T09:11:10.648Z,21.40
2024-04-14T09:13:42.443Z,21.50
2024-04-14T09:16:14.393Z,21.70
2024-04-14T09:18:46.461Z,21.90
2024-04-14T09:21:27.511Z,22.20
2024-04-14T09:24:00.612Z,22.90
2024-04-14T09:26:32.404Z,23.50
2024-04-14T09:29:08.363Z,24.40
2024-04-14T09:31:41.878Z,25.50
2024-04-14T09:34:13.805Z,25.90
2024-04-14T09:36:46.118Z,26.20
2024-04-14T09:39:20.282Z,26.50
2024-04-14T09:41:53.056Z,27.00
2024-04-14T09:44:28.953Z,27.20
2024-04-14T09:47:01.669Z,27.40
2024-04-14T09:49:33.749Z,27.20
2024-04-14T09:52:07.836Z,27.50
2024-04-14T09:54:40.807Z,27.40
2024-04-14T09:57:12.624Z,27.20
2024-04-14T09:59:44.884Z,26.80
2024-04-14T10:02:33.581Z,26.90
2024-04-14T10:05:08.743Z,27.30
2024-04-14T10:07:40.601Z,27.80
2024-04-14T10:10:12.715Z,28.40
2024-04-14T10:12:46.165Z,28.20
2024-04-14T10:15:18.267Z,28.30
2024-04-14T10:18:06.093Z,28.50
2024-04-14T10:20:45.855Z,29.00
2024-04-14T10:23:20.770Z,29.80
2024-04-14T10:25:53.675Z,30.40
2024-04-14T10:28:25.519Z,30.90
2024-04-14T10:31:01.950Z,30.50
2024-04-14T10:33:34.189Z,29.90
2024-04-14T10:36:06.893Z,29.70
2024-04-14T10:38:40.601Z,29.90
2024-04-14T10:41:17.824Z,29.90
2024-04-14T10:43:49.930Z,30.10
2024-04-14T10:46:22.227Z,29.70
2024-04-14T10:48:56.104Z,29.80
2024-04-14T10:51:27.891Z,30.10
2024-04-14T10:53:59.833Z,30.20
2024-04-14T10:56:31.756Z,29.60
2024-04-14T10:59:03.642Z,29.00
2024-04-14T11:01:35.712Z,29.40
2024-04-14T11:04:15.612Z,28.70
2024-04-14T11:06:47.973Z,28.70
2024-04-14T11:09:20.641Z,28.60
2024-04-14T11:11:53.047Z,28.20
2024-04-14T11:14:24.905Z,27.70
2024-04-14T11:16:56.814Z,27.30
2024-04-14T11:19:28.635Z,27.50
2024-04-14T11:22:01.754Z,27.00
2024-04-14T11:24:34.262Z,26.20
2024-04-14T11:27:06.400Z,26.40
2024-04-14T11:29:38.222Z,26.10
2024-04-14T11:32:29.536Z,26.10
2024-04-14T11:35:06.940Z,25.80
2024-04-14T11:37:39.824Z,25.40
2024-04-14T11:40:14.965Z,25.30
2024-04-14T11:42:46.856Z,25.20
2024-04-14T11:45:19.581Z,25.10
2024-04-14T11:47:51.406Z,24.80
2024-04-14T11:50:23.263Z,24.60
2024-04-14T11:52:56.746Z,24.30
2024-04-14T11:55:28.635Z,24.40
2024-04-14T11:58:01.406Z,24.50
2024-04-14T12:00:33.365Z,24.30
2024-04-14T12:03:05.656Z,23.90
2024-04-14T12:05:37.526Z,23.50
2024-04-14T12:08:09.354Z,23.50
2024-04-14T12:10:42.186Z,23.70
2024-04-14T12:13:14.864Z,23.90
2024-04-14T12:15:49.895Z,24.30
2024-04-14T12:18:21.992Z,24.40
2024-04-14T12:20:53.869Z,24.40
2024-04-14T12:23:25.636Z,24.70
2024-04-14T12:25:57.386Z,24.70
2024-04-14T12:28:29.167Z,24.70
2024-04-14T12:31:00.962Z,25.00
2024-04-14T12:33:32.814Z,24.70
2024-04-14T12:36:06.581Z,24.90
2024-04-14T12:38:40.094Z,25.10
2024-04-14T12:41:11.889Z,25.10
2024-04-14T12:43:43.669Z,24.90
2024-04-14T12:46:16.434Z,24.70
2024-04-14T12:48:50.527Z,24.80
2024-04-14T12:51:22.316Z,25.10
2024-04-14T12:53:54.157Z,25.00
2024-04-14T12:56:26.755Z,25.10
2024-04-14T12:58:58.524Z,25.10
2024-04-14T13:01:30.340Z,25.00
2024-04-14T13:04:02.467Z,24.90
2024-04-14T13:06:34.319Z,25.10
2024-04-14T13:09:06.121Z,25.10
2024-04-14T13:11:37.901Z,25.10
2024-04-14T13:14:11.049Z,25.00
2024-04-14T13:16:42.930Z,25.10
2024-04-14T13:19:14.791Z,25.20
2024-04-14T13:21:46.658Z,25.20
2024-04-14T13:24:19.426Z,25.00
2024-04-14T13:26:51.254Z,24.80
2024-04-14T13:29:23.031Z,24.70
2024-04-14T13:31:54.792Z,24.40
2024-04-14T13:34:26.672Z,24.40
2024-04-14T13:36:58.511Z,24.60
2024-04-14T13:39:31.208Z,24.80
2024-04-14T13:42:03.108Z,24.90
2024-04-14T13:44:36.257Z,24.70
2024-04-14T13:47:09.613Z,24.80
2024-04-14T13:49:41.482Z,24.60
2024-04-14T13:52:14.034Z,24.50
2024-04-14T13:54:45.856Z,24.20
2024-04-14T13:57:17.703Z,24.20
2024-04-14T13:59:51.156Z,24.40
2024-04-14T14:02:23.248Z,24.20
2024-04-14T14:04:55.191Z,24.20
2024-04-14T14:07:29.743Z,24.20
2024-04-14T14:10:01.507Z,24.30
2024-04-14T14:12:33.340Z,24.20
2024-04-14T14:15:05.358Z,24.10
2024-04-14T14:17:37.172Z,24.20
2024-04-14T14:20:09.617Z,24.10
2024-04-14T14:22:41.396Z,24.00
2024-04-14T14:25:13.247Z,24.00
2024-04-14T14:27:45.088Z,23.90
2024-04-14T14:30:16.902Z,23.70
2024-04-14T14:32:48.829Z,23.50
2024-04-14T14:35:39.299Z,23.30
2024-04-14T14:38:13.991Z,23.20
2024-04-14T14:40:49.664Z,23.30
2024-04-14T14:43:21.442Z,23.60
2024-04-14T14:45:53.330Z,23.60
2024-04-14T14:48:26.505Z,23.80
2024-04-14T14:50:58.486Z,23.60
2024-04-14T14:53:30.426Z,23.50
2024-04-14T14:56:03.637Z,23.50
2024-04-14T14:58:35.435Z,23.50
2024-04-14T15:01:07.257Z,23.30
2024-04-14T15:03:39.586Z,23.20
2024-04-14T15:06:13.125Z,23.20
2024-04-14T15:08:45.263Z,23.10
2024-04-14T15:11:21.630Z,23.30
2024-04-14T15:13:55.905Z,23.20
2024-04-14T15:16:28.124Z,23.00
2024-04-14T15:18:59.910Z,23.10
2024-04-14T15:21:35.486Z,23.00
2024-04-14T15:24:07.426Z,23.10
2024-04-14T15:26:39.307Z,22.80
2024-04-14T15:29:11.072Z,22.80
2024-04-14T15:31:42.987Z,22.80
2024-04-14T15:34:15.048Z,22.70
2024-04-14T15:36:46.845Z,22.60
2024-04-14T15:39:18.639Z,22.60
2024-04-14T15:41:50.421Z,22.60
2024-04-14T15:44:27.253Z,22.60
2024-04-14T15:47:00.733Z,22.60
2024-04-14T15:49:32.695Z,22.60
2024-04-14T15:52:04.758Z,22.50
2024-04-14T15:54:36.692Z,22.50
2024-04-14T15:57:09.379Z,22.40
2024-04-14T15:59:41.488Z,22.40
2024-04-14T16:02:13.248Z,22.40
2024-04-14T16:04:45.240Z,22.40
2024-04-14T16:07:17.178Z,22.40
2024-04-14T16:09:51.921Z,22.30
2024-04-14T16:12:23.837Z,22.30
2024-04-14T16:14:55.830Z,22.40
2024-04-14T16:17:27.835Z,22.20
2024-04-14T16:19:59.762Z,22.00
2024-04-14T16:22:31.643Z,22.10
2024-04-14T16:25:03.629Z,22.10
2024-04-14T16:27:35.453Z,22.00
2024-04-14T16:30:07.993Z,22.00
2024-04-14T16:32:39.854Z,22.00
2024-04-14T16:35:11.663Z,21.90
2024-04-14T16:37:43.416Z,21.80
2024-04-14T16:40:15.429Z,21.70
2024-04-14T16:42:47.400Z,21.70
2024-04-14T16:45:19.279Z,21.60
2024-04-14T16:47:51.282Z,21.70
2024-04-14T16:50:23.119Z,21.60
2024-04-14T16:52:55.020Z,21.50
2024-04-14T16:55:26.959Z,21.50
2024-04-14T16:57:59.017Z,21.40
2024-04-14T17:00:31.068Z,21.40
2024-04-14T17:03:03.032Z,21.40
2024-04-14T17:05:34.921Z,21.30
2024-04-14T17:08:07.119Z,21.20
2024-04-14T17:10:38.958Z,21.10
2024-04-14T17:13:11.372Z,21.10
2024-04-14T17:15:43.285Z,21.00
2024-04-14T17:18:15.062Z,21.00
2024-04-14T17:20:48.879Z,20.90
2024-04-14T17:23:20.826Z,20.80
2024-04-14T17:25:52.581Z,20.70
2024-04-14T17:28:24.433Z,20.70
2024-04-14T17:30:57.895Z,20.60
2024-04-14T17:33:29.795Z,20.50
2024-04-14T17:36:01.638Z,20.40
2024-04-14T17:38:33.370Z,20.30
2024-04-14T17:41:05.745Z,20.30
2024-04-14T17:43:37.578Z,20.20
2024-04-14T17:46:09.459Z,20.10
2024-04-14T17:48:41.410Z,20.00
2024-04-14T17:51:13.220Z,19.90
2024-04-14T17:53:45.100Z,19.90
2024-04-14T17:56:17.171Z,19.80
2024-04-14T17:58:49.032Z,19.70
2024-04-14T18:01:20.881Z,19.60
2024-04-14T18:03:54.224Z,19.50
2024-04-14T18:06:26.309Z,19.40
2024-04-14T18:08:58.214Z,19.20
2024-04-14T18:11:30.103Z,19.20
2024-04-14T18:14:02.000Z,19.10
2024-04-14T18:16:33.957Z,19.00
2024-04-14T18:19:05.929Z,18.90
2024-04-14T18:21:37.815Z,18.80
2024-04-14T18:24:09.592Z,18.70
2024-04-14T18:26:41.857Z,18.50
2024-04-14T18:29:13.772Z,18.40
2024-04-14T18:31:45.567Z,18.30
2024-04-14T18:34:17.393Z,18.20
2024-04-14T18:36:49.242Z,18.10
2024-04-14T18:39:21.086Z,18.10
2024-04-14T18:41:52.873Z,17.90
2024-04-14T18:44:24.713Z,17.90
2024-04-14T18:46:57.420Z,17.70
2024-04-14T18:49:29.149Z,17.70
2024-04-14T18:52:00.965Z,17.50
2024-04-14T18:54:32.821Z,17.50
2024-04-14T18:57:05.162Z,17.40
2024-04-14T18:59:37.002Z,17.30
2024-04-14T19:02:08.793Z,17.30
2024-04-14T19:04:40.649Z,17.20
2024-04-14T19:07:12.540Z,17.10
2024-04-14T19:09:44.345Z,17.00
2024-04-14T19:12:16.107Z,17.00
2024-04-14T19:14:47.850Z,16.90
2024-04-14T19:17:22.423Z,16.80
2024-04-14T19:19:54.273Z,16.80
2024-04-14T19:22:26.031Z,16.70
2024-04-14T19:24:57.810Z,16.70
2024-04-14T19:27:29.555Z,16.60
2024-04-14T19:30:01.366Z,16.50
2024-04-14T19:32:33.582Z,16.40
2024-04-14T19:35:06.203Z,16.40
2024-04-14T19:37:38.076Z,16.30
2024-04-14T19:40:10.393Z,16.30
2024-04-14T19:42:43.353Z,16.20
2024-04-14T19:45:15.216Z,16.10
2024-04-14T19:47:47.140Z,16.00
2024-04-14T19:50:19.023Z,16.00
2024-04-14T19:52:52.730Z,15.90
2024-04-14T19:55:25.639Z,15.90
2024-04-14T19:57:57.465Z,15.80
2024-04-14T20:00:29.298Z,15.80
2024-04-14T20:03:01.114Z,15.80
2024-04-14T20:05:33.408Z,15.70
2024-04-14T20:08:06.779Z,15.60
2024-04-14T20:10:38.613Z,15.60
2024-04-14T20:13:10.557Z,15.60
2024-04-14T20:15:42.500Z,15.50
2024-04-14T20:18:14.337Z,15.50
2024-04-14T20:20:48.070Z,15.40
2024-04-14T20:23:20.151Z,15.40
2024-04-14T20:25:51.903Z,15.30
2024-04-14T20:28:23.662Z,15.30
2024-04-14T20:30:55.490Z,15.30
2024-04-14T20:33:27.314Z,15.30
2024-04-14T20:36:00.140Z,15.30
2024-04-14T20:38:31.921Z,15.20
2024-04-14T20:41:03.920Z,15.20
2024-04-14T20:43:35.739Z,15.20
2024-04-14T20:46:08.751Z,15.10
2024-04-14T20:48:40.943Z,15.00
2024-04-14T20:51:16.814Z,15.10
2024-04-14T20:53:49.400Z,15.10
2024-04-14T20:56:21.198Z,15.20
2024-04-14T20:58:52.965Z,15.00
2024-04-14T21:01:24.849Z,15.00
2024-04-14T21:03:56.662Z,15.10
2024-04-14T21:06:29.399Z,15.10
2024-04-14T21:09:01.182Z,15.10
2024-04-14T21:11:32.945Z,15.10
2024-04-14T21:14:04.726Z,15.10
2024-04-14T21:16:36.536Z,15.10
2024-04-14T21:19:08.402Z,15.10
2024-04-14T21:21:42.059Z,15.10
2024-04-14T21:24:14.031Z,15.10
2024-04-14T21:26:45.824Z,15.00
2024-04-14T21:29:18.335Z,15.00
2024-04-14T21:31:50.203Z,15.00
2024-04-14T21:34:22.020Z,15.00
2024-04-14T21:36:53.790Z,15.00
2024-04-14T21:39:25.654Z,15.00
2024-04-14T21:41:57.434Z,15.00
2024-04-14T21:44:29.221Z,15.00
2024-04-14T21:47:01.026Z,15.00
2024-04-14T21:49:32.809Z,15.00
2024-04-14T21:52:05.185Z,15.00
2024-04-14T21:54:37.167Z,15.20
2024-04-14T21:57:08.990Z,15.30
2024-04-14T21:59:40.786Z,15.50
2024-04-14T22:02:12.562Z,15.40
2024-04-14T22:04:46.257Z,15.30
2024-04-14T22:07:18.197Z,15.20
2024-04-14T22:09:50.128Z,15.20
2024-04-14T22:12:21.952Z,15.20
2024-04-14T22:14:53.816Z,15.10
2024-04-14T22:17:25.681Z,15.00
2024-04-14T22:19:57.487Z,14.90
2024-04-14T22:22:29.274Z,14.90
2024-04-14T22:25:01.190Z,14.90
2024-04-14T22:27:33.083Z,14.90
2024-04-14T22:30:05.497Z,14.90
2024-04-14T22:32:37.332Z,14.90
2024-04-14T22:35:09.351Z,14.80
2024-04-14T22:37:41.383Z,14.90
2024-04-14T22:40:13.285Z,14.80
2024-04-14T22:42:45.095Z,14.80
2024-04-14T22:45:16.989Z,14.70
2024-04-14T22:47:49.011Z,14.70
2024-04-14T22:50:21.318Z,14.80
2024-04-14T22:52:53.131Z,14.80
2024-04-14T22:55:24.979Z,14.80
2024-04-14T22:57:56.821Z,14.90
2024-04-14T23:00:28.641Z,15.00
2024-04-14T23:03:00.508Z,15.00
2024-04-14T23:05:32.336Z,15.00
2024-04-14T23:08:04.853Z,14.90
2024-04-14T23:10:36.690Z,14.80
2024-04-14T23:13:08.661Z,14.80
2024-04-14T23:15:40.492Z,14.80
2024-04-14T23:18:12.418Z,14.80
2024-04-14T23:20:44.268Z,14.80
2024-04-14T23:23:16.045Z,14.80
2024-04-14T23:25:47.840Z,14.80
2024-04-14T23:28:19.680Z,14.80
2024-04-14T23:30:51.496Z,14.80
2024-04-14T23:33:23.326Z,14.80
2024-04-14T23:35:55.564Z,14.80
2024-04-14T23:38:27.316Z,14.80
2024-04-14T23:40:59.101Z,14.80
2024-04-14T23:43:30.889Z,14.80
2024-04-14T23:46:02.777Z,14.80
2024-04-14T23:48:34.534Z,14.80
2024-04-14T23:51:06.304Z,14.70
2024-04-14T23:53:38.384Z,14.70
2024-04-14T23:56:10.254Z,14.70
2024-04-14T23:58:42.040Z,14.70
